createdAt,value
2023-05-22T00:02:23.720Z,51.44
2023-05-22T00:05:30.716Z,51.52
2023-05-22T00:08:37.767Z,51.54
2023-05-22T00:11:43.626Z,51.58
2023-05-22T00:14:51.006Z,51.60
2023-05-22T00:17:57.017Z,51.68
2023-05-22T00:21:02.384Z,51.70
2023-05-22T00:24:08.483Z,51.74
2023-05-22T00:27:14.837Z,51.77
2023-05-22T00:30:22.133Z,51.82
2023-05-22T00:33:29.268Z,51.85
2023-05-22T00:36:34.661Z,51.95
2023-05-22T00:39:42.472Z,51.96
2023-05-22T00:42:50.384Z,51.96
2023-05-22T00:45:56.840Z,51.98
2023-05-22T00:49:03.225Z,52.04
2023-05-22T00:52:09.682Z,52.07
2023-05-22T00:55:17.605Z,52.14
2023-05-22T00:58:23.396Z,52.16
2023-05-22T01:01:30.567Z,52.20
2023-05-22T01:04:39.120Z,52.25
2023-05-22T01:07:45.322Z,52.33
2023-05-22T01:10:52.496Z,52.41
2023-05-22T01:14:39.925Z,52.57
2023-05-22T01:17:56.324Z,52.65
2023-05-22T01:21:30.111Z,52.73
2023-05-22T01:25:12.553Z,52.80
2023-05-22T01:28:51.485Z,52.90
2023-05-22T01:31:59.740Z,52.89
2023-05-22T01:35:12.591Z,52.90
2023-05-22T01:38:18.772Z,53.02
2023-05-22T01:41:24.326Z,53.14
2023-05-22T01:44:30.406Z,53.19
2023-05-22T01:47:36.692Z,53.32
2023-05-22T01:50:42.464Z,53.38
2023-05-22T01:53:52.787Z,53.43
2023-05-22T01:57:11.447Z,53.49
2023-05-22T02:00:25.623Z,53.51
2023-05-22T02:03:34.226Z,53.59
2023-05-22T02:06:41.017Z,53.69
2023-05-22T02:09:47.157Z,53.78
2023-05-22T02:12:53.229Z,53.85
2023-05-22T02:16:02.316Z,53.95
2023-05-22T02:19:15.898Z,54.05
2023-05-22T02:22:23.484Z,54.15
2023-05-22T02:25:30.208Z,54.22
2023-05-22T02:28:35.846Z,54.29
2023-05-22T02:31:41.152Z,54.36
2023-05-22T02:34:47.481Z,54.46
2023-05-22T02:37:53.886Z,54.62
2023-05-22T02:40:59.352Z,54.64
2023-05-22T02:44:04.456Z,54.72
2023-05-22T02:47:10.959Z,54.76
2023-05-22T02:50:17.242Z,54.84
2023-05-22T02:53:22.553Z,54.86
2023-05-22T02:56:29.441Z,54.90
2023-05-22T02:59:36.414Z,54.96
2023-05-22T03:02:43.981Z,55.03
2023-05-22T03:05:50.487Z,55.10
2023-05-22T03:08:56.749Z,55.14
2023-05-22T03:12:03.433Z,55.14
2023-05-22T03:15:11.927Z,55.22
2023-05-22T03:18:21.378Z,55.24
2023-05-22T03:21:28.369Z,55.28
2023-05-22T03:24:34.226Z,55.27
2023-05-22T03:27:39.992Z,55.30
2023-05-22T03:30:46.139Z,55.40
2023-05-22T03:33:56.040Z,55.46
2023-05-22T03:36:57.913Z,55.47
2023-05-22T03:40:05.044Z,55.55
2023-05-22T03:43:11.113Z,55.61
2023-05-22T03:46:17.336Z,55.60
2023-05-22T03:49:24.552Z,55.62
2023-05-22T03:52:29.751Z,55.74
2023-05-22T03:55:37.841Z,55.85
2023-05-22T03:58:45.556Z,55.80
2023-05-22T04:01:50.498Z,55.74
2023-05-22T04:04:57.407Z,55.66
2023-05-22T04:08:03.311Z,55.62
2023-05-22T04:11:10.179Z,55.54
2023-05-22T04:14:21.040Z,55.60
2023-05-22T04:17:26.738Z,55.73
2023-05-22T04:20:32.751Z,55.77
2023-05-22T04:23:42.520Z,55.56
2023-05-22T04:26:51.658Z,55.54
2023-05-22T04:29:58.544Z,55.52
2023-05-22T04:33:06.415Z,55.65
2023-05-22T04:36:12.690Z,55.65
2023-05-22T04:39:24.363Z,55.67
2023-05-22T04:42:30.546Z,55.64
2023-05-22T04:45:36.904Z,55.68
2023-05-22T04:48:44.498Z,55.60
2023-05-22T04:51:51.280Z,55.45
2023-05-22T04:55:00.662Z,55.52
2023-05-22T04:58:06.271Z,55.50
2023-05-22T05:01:13.171Z,55.38
2023-05-22T05:04:18.336Z,55.31
2023-05-22T05:07:25.118Z,55.22
2023-05-22T05:10:31.891Z,55.34
2023-05-22T05:13:38.619Z,55.27
2023-05-22T05:16:45.305Z,55.26
2023-05-22T05:19:51.346Z,55.25
2023-05-22T05:22:58.717Z,55.24
2023-05-22T05:26:05.400Z,55.24
2023-05-22T05:29:12.476Z,55.24
2023-05-22T05:32:23.463Z,55.30
2023-05-22T05:35:32.067Z,55.30
2023-05-22T05:38:40.769Z,55.24
2023-05-22T05:41:47.580Z,55.15
2023-05-22T05:44:53.840Z,55.21
2023-05-22T05:48:03.205Z,55.27
2023-05-22T05:51:18.301Z,55.14
2023-05-22T05:54:25.748Z,55.18
2023-05-22T05:57:33.447Z,55.05
2023-05-22T06:00:43.964Z,55.04
2023-05-22T06:03:52.409Z,54.94
2023-05-22T06:07:00.614Z,54.85
2023-05-22T06:10:08.654Z,54.89
2023-05-22T06:13:18.606Z,54.84
2023-05-22T06:16:24.264Z,54.79
2023-05-22T06:19:31.764Z,54.77
2023-05-22T06:22:40.096Z,54.62
2023-05-22T06:25:46.891Z,54.59
2023-05-22T06:28:53.175Z,54.49
2023-05-22T06:32:03.865Z,54.37
2023-05-22T06:35:10.566Z,54.29
2023-05-22T06:38:17.404Z,54.24
2023-05-22T06:41:24.977Z,54.09
2023-05-22T06:44:33.552Z,54.10
2023-05-22T06:47:39.934Z,54.14
2023-05-22T06:50:47.356Z,53.87
2023-05-22T06:53:53.047Z,53.71
2023-05-22T06:57:01.431Z,53.60
2023-05-22T07:00:10.340Z,53.43
2023-05-22T07:03:20.131Z,53.19
2023-05-22T07:06:41.219Z,53.13
2023-05-22T07:09:58.851Z,53.13
2023-05-22T07:13:05.430Z,53.04
2023-05-22T07:16:11.831Z,52.89
2023-05-22T07:19:20.533Z,52.85
2023-05-22T07:22:29.866Z,52.58
2023-05-22T07:25:36.897Z,52.50
2023-05-22T07:28:45.007Z,52.58
2023-05-22T07:31:52.288Z,52.47
2023-05-22T07:35:01.174Z,52.23
2023-05-22T07:38:08.771Z,51.89
2023-05-22T07:41:17.068Z,51.79
2023-05-22T07:44:23.095Z,51.67
2023-05-22T07:47:28.002Z,51.35
2023-05-22T07:50:34.780Z,51.31
2023-05-22T07:53:43.195Z,51.05
2023-05-22T07:56:49.082Z,51.23
2023-05-22T07:59:58.293Z,51.12
2023-05-22T08:03:06.637Z,50.72
2023-05-22T08:06:13.337Z,50.49
2023-05-22T08:09:20.813Z,50.38
2023-05-22T08:12:25.792Z,50.16
2023-05-22T08:15:30.865Z,49.99
2023-05-22T08:18:37.447Z,49.71
2023-05-22T08:21:44.706Z,49.23
2023-05-22T08:24:52.416Z,48.92
2023-05-22T08:28:03.100Z,49.02
2023-05-22T08:31:09.531Z,48.87
2023-05-22T08:34:21.199Z,48.59
2023-05-22T08:37:26.692Z,48.44
2023-05-22T08:40:32.122Z,48.31
2023-05-22T08:43:38.496Z,48.31
2023-05-22T08:46:46.645Z,48.04
2023-05-22T08:49:53.404Z,47.89
2023-05-22T08:53:09.727Z,47.82
2023-05-22T08:56:16.473Z,47.96
2023-05-22T08:59:21.381Z,47.93
2023-05-22T09:02:31.667Z,47.87
2023-05-22T09:05:38.267Z,47.66
2023-05-22T09:08:45.028Z,47.49
2023-05-22T09:11:51.015Z,47.04
2023-05-22T09:15:00.966Z,46.89
2023-05-22T09:18:06.800Z,46.89
2023-05-22T09:21:25.797Z,46.70
2023-05-22T09:24:24.632Z,46.45
2023-05-22T09:27:32.324Z,46.07
2023-05-22T09:30:39.881Z,46.15
2023-05-22T09:33:47.418Z,46.07
2023-05-22T09:36:53.770Z,45.83
2023-05-22T09:40:04.238Z,45.57
2023-05-22T09:43:11.593Z,45.34
2023-05-22T09:46:18.970Z,45.35
2023-05-22T09:49:25.602Z,45.22
2023-05-22T09:52:32.214Z,45.01
2023-05-22T09:55:38.487Z,44.89
2023-05-22T09:58:45.097Z,44.62
2023-05-22T10:01:54.148Z,44.54
2023-05-22T10:05:01.862Z,44.55
2023-05-22T10:08:12.488Z,44.58
2023-05-22T10:11:20.002Z,44.35
2023-05-22T10:14:27.356Z,44.11
2023-05-22T10:17:34.900Z,43.89
2023-05-22T10:20:42.237Z,43.91
2023-05-22T10:23:48.578Z,43.84
2023-05-22T10:26:55.229Z,43.90
2023-05-22T10:30:11.943Z,43.81
2023-05-22T10:33:36.411Z,43.82
2023-05-22T10:36:53.311Z,43.81
2023-05-22T10:40:22.852Z,44.02
2023-05-22T10:43:21.919Z,43.87
2023-05-22T10:46:14.680Z,43.80
2023-05-22T10:49:08.258Z,43.54
2023-05-22T10:51:55.267Z,43.28
2023-05-22T10:54:55.509Z,43.20
2023-05-22T10:57:48.735Z,42.84
2023-05-22T11:00:54.587Z,42.77
2023-05-22T11:04:24.340Z,42.75
2023-05-22T11:07:34.268Z,42.92
2023-05-22T11:11:04.220Z,42.82
2023-05-22T11:14:17.578Z,42.59
2023-05-22T11:17:24.868Z,42.10
2023-05-22T11:20:38.326Z,42.03
2023-05-22T11:23:47.955Z,42.17
2023-05-22T11:26:57.916Z,42.26
2023-05-22T11:30:05.530Z,41.95
2023-05-22T11:33:17.383Z,41.59
2023-05-22T11:36:23.760Z,41.66
2023-05-22T11:39:30.635Z,41.67
2023-05-22T11:42:35.680Z,41.58
2023-05-22T11:45:41.691Z,41.27
2023-05-22T11:48:51.269Z,41.36
2023-05-22T11:51:57.270Z,41.16
2023-05-22T11:55:08.333Z,41.02
2023-05-22T11:58:13.794Z,40.97
2023-05-22T12:01:19.537Z,40.89
2023-05-22T12:04:24.562Z,40.74
2023-05-22T12:07:29.940Z,40.64
2023-05-22T12:10:36.794Z,40.58
2023-05-22T12:13:43.158Z,40.35
2023-05-22T12:16:52.451Z,40.22
2023-05-22T12:19:59.332Z,39.87
2023-05-22T12:23:06.039Z,39.75
2023-05-22T12:26:23.888Z,39.65
2023-05-22T12:29:30.119Z,39.57
2023-05-22T12:32:37.322Z,39.70
2023-05-22T12:35:43.377Z,39.56
2023-05-22T12:38:49.489Z,39.54
2023-05-22T12:41:55.850Z,39.37
2023-05-22T12:45:02.467Z,39.25
2023-05-22T12:48:12.758Z,39.17
2023-05-22T12:51:20.086Z,39.06
2023-05-22T12:54:26.289Z,38.94
2023-05-22T12:57:55.392Z,38.98
2023-05-22T13:01:01.651Z,39.19
2023-05-22T13:04:15.179Z,39.21
2023-05-22T13:07:25.195Z,39.34
2023-05-22T13:10:30.402Z,39.17
2023-05-22T13:13:42.584Z,39.18
2023-05-22T13:16:50.872Z,39.06
2023-05-22T13:19:57.781Z,39.07
2023-05-22T13:23:05.615Z,39.18
2023-05-22T13:26:13.047Z,39.36
2023-05-22T13:29:23.177Z,39.46
2023-05-22T13:32:29.955Z,39.43
2023-05-22T13:35:36.302Z,39.43
2023-05-22T13:38:50.710Z,39.33
2023-05-22T13:41:56.894Z,39.40
2023-05-22T13:45:02.178Z,39.67
2023-05-22T13:48:07.968Z,39.77
2023-05-22T13:51:13.672Z,39.81
2023-05-22T13:54:23.256Z,39.86
2023-05-22T13:57:30.510Z,40.00
2023-05-22T14:00:38.453Z,39.95
2023-05-22T14:03:44.372Z,39.90
2023-05-22T14:06:51.170Z,39.98
2023-05-22T14:09:59.647Z,39.98
2023-05-22T14:13:06.773Z,40.10
2023-05-22T14:16:13.281Z,40.12
2023-05-22T14:19:19.125Z,40.30
2023-05-22T14:22:25.629Z,40.51
2023-05-22T14:25:32.051Z,40.79
2023-05-22T14:28:43.213Z,40.98
2023-05-22T14:32:00.922Z,41.19
2023-05-22T14:35:06.586Z,41.43
2023-05-22T14:38:12.139Z,41.71
2023-05-22T14:41:19.728Z,41.93
2023-05-22T14:44:27.024Z,42.22
2023-05-22T14:47:33.505Z,42.48
2023-05-22T14:50:38.210Z,42.71
2023-05-22T14:53:44.175Z,42.96
2023-05-22T14:56:49.991Z,43.23
2023-05-22T14:59:56.410Z,43.58
2023-05-22T15:03:03.782Z,43.68
2023-05-22T15:06:10.468Z,43.90
2023-05-22T15:09:17.656Z,44.16
2023-05-22T15:12:24.928Z,44.33
2023-05-22T15:15:30.617Z,44.52
2023-05-22T15:18:36.491Z,44.78
2023-05-22T15:21:42.917Z,44.92
2023-05-22T15:24:50.931Z,45.05
2023-05-22T15:27:56.439Z,45.19
2023-05-22T15:31:02.326Z,45.33
2023-05-22T15:34:10.582Z,45.39
2023-05-22T15:37:16.266Z,45.40
2023-05-22T15:40:26.031Z,45.50
2023-05-22T15:43:32.727Z,45.71
2023-05-22T15:46:37.801Z,45.98
2023-05-22T15:49:43.239Z,46.11
2023-05-22T15:52:49.231Z,46.18
2023-05-22T15:55:54.942Z,46.32
2023-05-22T15:59:01.524Z,46.45
2023-05-22T16:02:08.816Z,46.55
2023-05-22T16:05:15.776Z,46.68
2023-05-22T16:08:22.530Z,46.95
2023-05-22T16:11:29.443Z,47.18
2023-05-22T16:14:37.439Z,47.40
2023-05-22T16:17:45.382Z,47.47
2023-05-22T16:20:52.233Z,47.69
2023-05-22T16:23:57.171Z,47.81
2023-05-22T16:27:04.094Z,48.03
2023-05-22T16:30:10.715Z,48.19
2023-05-22T16:33:17.982Z,48.31
2023-05-22T16:36:26.368Z,48.43
2023-05-22T16:39:33.454Z,48.59
2023-05-22T16:42:39.918Z,48.76
2023-05-22T16:45:46.376Z,48.99
2023-05-22T16:48:52.385Z,49.19
2023-05-22T16:51:59.067Z,49.29
2023-05-22T16:55:05.568Z,49.36
2023-05-22T16:58:10.794Z,49.49
2023-05-22T17:01:17.564Z,49.64
2023-05-22T17:04:25.326Z,49.80
2023-05-22T17:07:31.841Z,49.97
2023-05-22T17:10:39.200Z,50.03
2023-05-22T17:13:43.929Z,50.30
2023-05-22T17:16:49.157Z,50.44
2023-05-22T17:19:55.211Z,50.55
2023-05-22T17:23:01.931Z,50.72
2023-05-22T17:26:07.981Z,50.88
2023-05-22T17:29:14.092Z,51.09
2023-05-22T17:32:22.786Z,51.22
2023-05-22T17:35:28.506Z,51.42
2023-05-22T17:38:33.019Z,51.60
2023-05-22T17:41:39.792Z,51.76
2023-05-22T17:44:45.820Z,51.94
2023-05-22T17:47:54.847Z,52.06
2023-05-22T17:51:01.754Z,52.22
2023-05-22T17:54:10.202Z,52.39
2023-05-22T17:57:15.813Z,52.56
2023-05-22T18:00:23.604Z,52.70
2023-05-22T18:03:31.043Z,52.84
2023-05-22T18:06:37.470Z,52.99
2023-05-22T18:09:43.832Z,53.11
2023-05-22T18:12:49.317Z,53.21
2023-05-22T18:15:57.643Z,53.40
2023-05-22T18:19:03.454Z,53.54
2023-05-22T18:22:08.780Z,53.66
2023-05-22T18:25:13.899Z,53.76
2023-05-22T18:28:21.840Z,53.81
2023-05-22T18:31:29.784Z,53.88
2023-05-22T18:34:37.107Z,54.02
2023-05-22T18:37:43.859Z,54.15
2023-05-22T18:40:50.081Z,54.28
2023-05-22T18:43:57.068Z,54.38
2023-05-22T18:47:02.384Z,54.50
2023-05-22T18:50:09.000Z,54.69
2023-05-22T18:53:15.970Z,54.77
2023-05-22T18:56:21.493Z,54.93
2023-05-22T18:59:29.325Z,55.06
2023-05-22T19:02:34.251Z,55.17
2023-05-22T19:05:42.110Z,55.30
2023-05-22T19:08:48.416Z,55.42
2023-05-22T19:11:53.943Z,55.55
2023-05-22T19:15:00.787Z,55.67
2023-05-22T19:18:08.398Z,55.80
2023-05-22T19:21:15.735Z,55.88
2023-05-22T19:24:21.994Z,56.01
2023-05-22T19:27:27.415Z,56.08
2023-05-22T19:30:33.997Z,56.26
2023-05-22T19:33:43.980Z,56.38
2023-05-22T19:36:51.615Z,56.50
2023-05-22T19:39:57.860Z,56.63
2023-05-22T19:43:02.723Z,56.81
2023-05-22T19:46:09.011Z,56.97
2023-05-22T19:49:16.304Z,57.08
2023-05-22T19:52:23.729Z,57.13
2023-05-22T19:55:29.387Z,57.22
2023-05-22T19:58:35.834Z,57.37
2023-05-22T20:01:43.118Z,57.43
2023-05-22T20:04:50.233Z,57.55
2023-05-22T20:07:56.879Z,57.74
2023-05-22T20:11:03.264Z,57.88
2023-05-22T20:14:11.598Z,57.94
2023-05-22T20:17:17.856Z,58.01
2023-05-22T20:20:25.276Z,58.23
2023-05-22T20:23:31.427Z,58.29
2023-05-22T20:26:38.157Z,58.45
2023-05-22T20:29:44.143Z,58.51
2023-05-22T20:32:50.545Z,58.62
2023-05-22T20:35:58.954Z,58.61
2023-05-22T20:39:06.707Z,58.66
2023-05-22T20:42:14.964Z,58.77
2023-05-22T20:45:22.493Z,58.92
2023-05-22T20:48:29.146Z,58.98
2023-05-22T20:51:37.122Z,59.03
2023-05-22T20:54:45.715Z,59.13
2023-05-22T20:57:51.616Z,59.22
2023-05-22T21:00:58.557Z,59.39
2023-05-22T21:04:06.108Z,59.54
2023-05-22T21:07:12.154Z,59.59
2023-05-22T21:10:19.971Z,59.74
2023-05-22T21:13:25.665Z,59.87
2023-05-22T21:16:32.520Z,59.97
2023-05-22T21:19:39.011Z,59.95
2023-05-22T21:22:44.502Z,60.01
2023-05-22T21:25:51.575Z,60.10
2023-05-22T21:28:58.823Z,60.18
2023-05-22T21:32:05.041Z,60.23
2023-05-22T21:35:10.386Z,60.27
2023-05-22T21:38:16.013Z,60.31
2023-05-22T21:41:22.392Z,60.40
2023-05-22T21:44:28.268Z,60.48
2023-05-22T21:47:35.451Z,60.66
2023-05-22T21:50:41.036Z,60.70
2023-05-22T21:53:47.533Z,60.73
2023-05-22T21:56:54.230Z,60.89
2023-05-22T21:59:59.726Z,60.93
2023-05-22T22:03:04.845Z,60.99
2023-05-22T22:06:12.149Z,61.04
2023-05-22T22:09:19.797Z,61.06
2023-05-22T22:12:26.069Z,61.10
2023-05-22T22:15:32.746Z,61.18
2023-05-22T22:18:40.663Z,61.24
2023-05-22T22:21:46.248Z,61.32
2023-05-22T22:24:52.573Z,61.38
2023-05-22T22:28:00.878Z,61.43
2023-05-22T22:31:06.158Z,61.46
2023-05-22T22:34:12.590Z,61.63
2023-05-22T22:37:18.667Z,61.74
2023-05-22T22:40:26.845Z,61.88
2023-05-22T22:43:33.953Z,61.93
2023-05-22T22:46:40.179Z,61.90
2023-05-22T22:49:46.135Z,61.88
2023-05-22T22:52:53.046Z,61.90
2023-05-22T22:55:58.570Z,62.06
2023-05-22T22:59:06.209Z,62.20
2023-05-22T23:02:11.996Z,62.25
2023-05-22T23:05:11.849Z,62.31
2023-05-22T23:08:06.930Z,62.29
2023-05-22T23:11:12.207Z,62.37
2023-05-22T23:14:19.520Z,62.45
2023-05-22T23:17:27.746Z,62.57
2023-05-22T23:20:33.375Z,62.65
2023-05-22T23:23:38.822Z,62.76
2023-05-22T23:26:44.332Z,62.85
2023-05-22T23:29:50.043Z,62.93
2023-05-22T23:32:57.485Z,62.90
2023-05-22T23:36:03.602Z,62.90
2023-05-22T23:39:08.633Z,63.00
2023-05-22T23:42:15.642Z,63.08
2023-05-22T23:45:21.790Z,63.15
2023-05-22T23:48:27.202Z,63.20
2023-05-22T23:51:32.224Z,63.27
2023-05-22T23:54:38.912Z,63.39
2023-05-22T23:57:46.348Z,63.45
